createdAt,value
2023-03-22T00:02:01.999Z,99.90
2023-03-22T00:04:28.662Z,99.90
2023-03-22T00:06:55.368Z,99.90
2023-03-22T00:09:22.150Z,99.90
2023-03-22T00:11:51.012Z,99.90
2023-03-22T00:14:21.129Z,99.90
2023-03-22T00:16:49.413Z,99.90
2023-03-22T00:19:17.419Z,99.90
2023-03-22T00:21:44.624Z,99.90
2023-03-22T00:24:11.472Z,99.90
2023-03-22T00:26:38.261Z,99.90
2023-03-22T00:29:05.348Z,99.90
2023-03-22T00:31:32.121Z,99.90
2023-03-22T00:33:58.985Z,99.90
2023-03-22T00:36:25.990Z,99.90
2023-03-22T00:38:52.833Z,99.90
2023-03-22T00:41:22.094Z,99.90
2023-03-22T00:43:50.329Z,99.90
2023-03-22T00:46:19.551Z,99.90
2023-03-22T00:48:46.845Z,99.90
2023-03-22T00:51:14.377Z,99.90
2023-03-22T00:53:43.248Z,99.90
2023-03-22T00:56:16.751Z,99.90
2023-03-22T00:58:44.022Z,99.90
2023-03-22T01:01:13.926Z,99.90
2023-03-22T01:03:42.538Z,99.90
2023-03-22T01:06:10.639Z,99.90
2023-03-22T01:08:38.776Z,99.90
2023-03-22T01:11:07.303Z,99.90
2023-03-22T01:13:37.461Z,99.90
2023-03-22T01:16:06.255Z,99.90
2023-03-22T01:18:33.007Z,99.90
2023-03-22T01:21:00.347Z,99.90
2023-03-22T01:27:14.628Z,99.90
2023-03-22T01:29:41.462Z,99.90
2023-03-22T01:32:08.430Z,99.90
2023-03-22T01:34:35.341Z,99.90
2023-03-22T01:37:02.023Z,99.90
2023-03-22T01:39:28.804Z,99.90
2023-03-22T01:41:55.695Z,99.90
2023-03-22T01:44:23.952Z,99.90
2023-03-22T01:46:51.668Z,99.90
2023-03-22T01:49:29.322Z,99.90
2023-03-22T01:52:00.662Z,99.90
2023-03-22T01:54:44.921Z,99.90
2023-03-22T01:57:12.413Z,99.90
2023-03-22T01:59:40.963Z,99.90
2023-03-22T02:02:10.866Z,99.90
2023-03-22T02:04:39.232Z,99.90
2023-03-22T02:07:10.308Z,99.90
2023-03-22T02:09:42.291Z,99.90
2023-03-22T02:12:35.690Z,99.90
2023-03-22T02:15:21.707Z,99.90
2023-03-22T02:18:16.560Z,99.90
2023-03-22T02:20:55.855Z,99.90
2023-03-22T02:23:28.695Z,99.90
2023-03-22T02:26:27.894Z,99.90
2023-03-22T02:29:08.138Z,99.90
2023-03-22T02:31:34.854Z,99.90
2023-03-22T02:34:28.687Z,99.90
2023-03-22T02:37:18.184Z,99.90
2023-03-22T02:40:01.012Z,99.90
2023-03-22T02:42:37.259Z,99.90
2023-03-22T02:45:29.130Z,99.90
2023-03-22T02:48:13.629Z,99.90
2023-03-22T02:50:46.526Z,99.90
2023-03-22T02:53:40.703Z,99.90
2023-03-22T02:56:19.493Z,99.90
2023-03-22T02:58:51.279Z,99.90
2023-03-22T03:01:29.061Z,99.90
2023-03-22T03:04:02.388Z,99.90
2023-03-22T03:06:39.034Z,99.90
2023-03-22T03:09:07.218Z,99.90
2023-03-22T03:11:34.060Z,99.90
2023-03-22T03:14:00.981Z,99.90
2023-03-22T03:16:30.819Z,99.90
2023-03-22T03:19:25.455Z,99.90
2023-03-22T03:22:09.668Z,99.90
2023-03-22T03:24:45.891Z,99.90
2023-03-22T03:27:35.315Z,99.90
2023-03-22T03:30:16.642Z,99.90
2023-03-22T03:32:56.604Z,99.90
2023-03-22T03:35:28.168Z,99.90
2023-03-22T03:38:04.008Z,99.90
2023-03-22T03:40:34.888Z,99.90
2023-03-22T03:43:04.651Z,99.90
2023-03-22T03:45:32.509Z,99.90
2023-03-22T03:48:02.968Z,99.90
2023-03-22T03:50:30.912Z,99.90
2023-03-22T03:52:58.402Z,99.90
2023-03-22T03:55:25.897Z,99.90
2023-03-22T03:57:52.592Z,99.90
2023-03-22T04:00:20.150Z,99.90
2023-03-22T04:02:46.869Z,99.90
2023-03-22T04:05:13.989Z,99.90
2023-03-22T04:07:41.299Z,99.90
2023-03-22T04:10:08.681Z,99.90
2023-03-22T04:12:35.597Z,99.90
2023-03-22T04:15:02.346Z,99.90
2023-03-22T04:17:29.326Z,99.90
2023-03-22T04:19:59.365Z,99.90
2023-03-22T04:22:26.800Z,99.90
2023-03-22T04:24:53.496Z,99.90
2023-03-22T04:27:21.939Z,99.90
2023-03-22T04:29:48.750Z,99.90
2023-03-22T04:32:18.842Z,99.90
2023-03-22T04:34:46.488Z,99.90
2023-03-22T04:37:14.426Z,99.90
2023-03-22T04:39:41.833Z,99.90
2023-03-22T04:42:08.727Z,99.90
2023-03-22T04:44:36.047Z,99.90
2023-03-22T04:47:03.224Z,99.90
2023-03-22T04:49:31.417Z,99.90
2023-03-22T04:51:58.326Z,99.90
2023-03-22T04:54:25.103Z,99.90
2023-03-22T04:56:51.946Z,99.90
2023-03-22T04:59:20.465Z,99.90
2023-03-22T05:01:48.012Z,99.90
2023-03-22T05:04:15.576Z,99.90
2023-03-22T05:06:42.397Z,99.90
2023-03-22T05:09:09.763Z,99.90
2023-03-22T05:11:36.586Z,99.90
2023-03-22T05:14:03.907Z,99.90
2023-03-22T05:16:30.679Z,99.90
2023-03-22T05:18:57.562Z,99.90
2023-03-22T05:21:28.605Z,99.90
2023-03-22T05:23:57.670Z,99.90
2023-03-22T05:26:26.202Z,99.90
2023-03-22T05:28:54.194Z,99.90
2023-03-22T05:31:22.176Z,99.90
2023-03-22T05:33:50.523Z,99.90
2023-03-22T05:36:22.870Z,99.90
2023-03-22T05:38:49.896Z,99.90
2023-03-22T05:41:16.596Z,99.90
2023-03-22T05:43:43.246Z,99.90
2023-03-22T05:46:11.959Z,99.90
2023-03-22T05:48:39.796Z,99.90
2023-03-22T05:51:08.304Z,99.90
2023-03-22T05:53:35.386Z,99.90
2023-03-22T05:56:02.198Z,99.90
2023-03-22T05:58:30.788Z,99.90
2023-03-22T06:01:01.128Z,99.90
2023-03-22T06:03:28.604Z,99.90
2023-03-22T06:05:55.484Z,99.90
2023-03-22T06:08:26.045Z,99.90
2023-03-22T06:10:53.739Z,99.90
2023-03-22T06:13:21.412Z,99.90
2023-03-22T06:15:48.154Z,99.90
2023-03-22T06:18:14.844Z,99.90
2023-03-22T06:20:42.080Z,99.90
2023-03-22T06:23:09.110Z,99.90
2023-03-22T06:25:36.224Z,99.90
2023-03-22T06:28:03.723Z,99.90
2023-03-22T06:30:30.476Z,99.90
2023-03-22T06:33:00.540Z,99.90
2023-03-22T06:35:27.717Z,99.90
2023-03-22T06:37:54.474Z,99.90
2023-03-22T06:40:21.358Z,99.90
2023-03-22T06:42:48.310Z,99.90
2023-03-22T06:45:16.500Z,99.90
2023-03-22T06:47:44.383Z,99.90
2023-03-22T06:50:12.004Z,99.90
2023-03-22T06:52:38.786Z,99.90
2023-03-22T06:55:05.842Z,99.90
2023-03-22T06:57:32.714Z,99.90
2023-03-22T06:59:59.676Z,99.90
2023-03-22T07:02:26.342Z,99.90
2023-03-22T07:04:53.003Z,99.90
2023-03-22T07:07:19.703Z,99.90
2023-03-22T07:09:46.479Z,99.90
2023-03-22T07:12:13.154Z,99.90
2023-03-22T07:14:40.357Z,99.90
2023-03-22T07:17:07.059Z,99.90
2023-03-22T07:19:34.046Z,99.90
2023-03-22T07:22:00.830Z,99.90
2023-03-22T07:24:27.520Z,99.90
2023-03-22T07:26:54.232Z,99.90
2023-03-22T07:29:21.470Z,99.90
2023-03-22T07:31:48.595Z,99.90
2023-03-22T07:34:16.333Z,99.90
2023-03-22T07:36:43.074Z,99.90
2023-03-22T07:39:09.836Z,99.90
2023-03-22T07:41:36.620Z,99.90
2023-03-22T07:44:17.036Z,99.90
2023-03-22T07:46:44.650Z,99.90
2023-03-22T07:49:11.389Z,99.90
2023-03-22T07:51:38.151Z,99.90
2023-03-22T07:54:07.511Z,99.90
2023-03-22T07:56:34.969Z,99.90
2023-03-22T07:59:02.173Z,99.90
2023-03-22T08:01:28.976Z,99.90
2023-03-22T08:03:55.683Z,99.90
2023-03-22T08:06:22.374Z,99.90
2023-03-22T08:08:49.030Z,99.90
2023-03-22T08:11:15.931Z,99.90
2023-03-22T08:13:42.745Z,99.90
2023-03-22T08:16:09.441Z,99.90
2023-03-22T08:18:36.261Z,99.90
2023-03-22T08:21:03.336Z,99.90
2023-03-22T08:23:40.815Z,99.90
2023-03-22T08:26:09.056Z,99.90
2023-03-22T08:28:35.785Z,99.90
2023-03-22T08:31:09.837Z,99.90
2023-03-22T08:33:36.570Z,99.90
2023-03-22T08:36:09.164Z,99.90
2023-03-22T08:38:36.157Z,99.90
2023-03-22T08:41:03.428Z,99.90
2023-03-22T08:43:30.359Z,99.90
2023-03-22T08:45:57.684Z,99.90
2023-03-22T08:48:25.081Z,99.90
2023-03-22T08:50:51.978Z,99.90
2023-03-22T08:53:18.672Z,99.90
2023-03-22T08:55:45.332Z,99.90
2023-03-22T08:58:22.096Z,99.90
2023-03-22T09:00:49.897Z,99.70
2023-03-22T09:03:17.054Z,99.90
2023-03-22T09:05:44.009Z,99.90
2023-03-22T09:08:18.498Z,95.70
2023-03-22T09:10:52.556Z,95.40
2023-03-22T09:13:20.332Z,95.90
2023-03-22T09:15:47.787Z,93.30
2023-03-22T09:18:16.193Z,91.60
2023-03-22T09:20:44.671Z,91.60
2023-03-22T09:23:15.599Z,93.20
2023-03-22T09:25:46.893Z,89.30
2023-03-22T09:28:14.048Z,90.80
2023-03-22T09:30:41.444Z,91.90
2023-03-22T09:33:08.757Z,90.00
2023-03-22T09:35:35.712Z,89.70
2023-03-22T09:38:03.478Z,86.80
2023-03-22T09:40:32.762Z,85.60
2023-03-22T09:43:03.165Z,91.20
2023-03-22T09:45:43.901Z,91.60
2023-03-22T09:48:18.661Z,92.20
2023-03-22T09:50:50.403Z,88.10
2023-03-22T09:53:18.415Z,85.70
2023-03-22T09:56:02.158Z,86.10
2023-03-22T09:58:33.349Z,84.70
2023-03-22T10:01:11.990Z,85.20
2023-03-22T10:04:16.622Z,80.80
2023-03-22T10:06:49.078Z,81.20
2023-03-22T10:09:37.296Z,87.20
2023-03-22T10:12:22.017Z,83.20
2023-03-22T10:14:58.731Z,83.40
2023-03-22T10:17:28.442Z,76.80
2023-03-22T10:20:00.756Z,77.60
2023-03-22T10:22:33.022Z,79.70
2023-03-22T10:25:01.318Z,82.40
2023-03-22T10:27:30.576Z,78.50
2023-03-22T10:30:26.624Z,79.60
2023-03-22T10:33:01.833Z,71.60
2023-03-22T10:35:30.811Z,65.90
2023-03-22T10:38:03.782Z,66.40
2023-03-22T10:40:33.652Z,66.90
2023-03-22T10:43:07.743Z,63.80
2023-03-22T10:45:36.387Z,65.20
2023-03-22T10:48:09.630Z,61.10
2023-03-22T10:50:43.483Z,62.00
2023-03-22T10:53:43.973Z,62.30
2023-03-22T10:56:16.908Z,60.50
2023-03-22T10:58:43.650Z,60.50
2023-03-22T11:01:14.427Z,59.30
2023-03-22T11:03:43.645Z,61.60
2023-03-22T11:06:20.043Z,58.50
2023-03-22T11:08:48.316Z,59.20
2023-03-22T11:11:23.470Z,57.60
2023-03-22T11:13:59.271Z,57.00
2023-03-22T11:16:26.239Z,56.60
2023-03-22T11:18:54.231Z,56.10
2023-03-22T11:21:26.009Z,56.40
2023-03-22T11:23:58.724Z,56.20
2023-03-22T11:26:32.162Z,53.90
2023-03-22T11:29:12.585Z,55.00
2023-03-22T11:31:59.656Z,55.10
2023-03-22T11:34:29.604Z,54.50
2023-03-22T11:36:59.512Z,54.90
2023-03-22T11:39:28.426Z,54.10
2023-03-22T11:42:06.210Z,54.60
2023-03-22T11:44:35.575Z,54.00
2023-03-22T11:47:04.394Z,53.70
2023-03-22T11:49:50.424Z,53.80
2023-03-22T11:52:20.113Z,55.80
2023-03-22T11:54:47.654Z,54.10
2023-03-22T11:57:19.231Z,53.90
2023-03-22T11:59:58.140Z,53.90
2023-03-22T12:02:29.923Z,53.70
2023-03-22T12:05:18.793Z,52.80
2023-03-22T12:07:48.593Z,51.70
2023-03-22T12:10:32.563Z,52.40
2023-03-22T12:13:04.898Z,52.30
2023-03-22T12:15:40.437Z,52.00
2023-03-22T12:18:13.657Z,53.40
2023-03-22T12:20:45.132Z,53.20
2023-03-22T12:23:17.634Z,53.20
2023-03-22T12:29:19.627Z,52.30
2023-03-22T12:32:03.597Z,50.00
2023-03-22T12:34:41.835Z,48.50
2023-03-22T12:37:15.819Z,47.30
2023-03-22T12:39:57.473Z,47.60
2023-03-22T12:42:34.933Z,48.10
2023-03-22T12:45:18.749Z,45.90
2023-03-22T12:47:58.600Z,48.20
2023-03-22T12:50:49.860Z,46.40
2023-03-22T12:53:19.154Z,47.00
2023-03-22T12:55:48.190Z,47.70
2023-03-22T12:58:23.648Z,48.80
2023-03-22T13:00:58.706Z,47.60
2023-03-22T13:03:30.493Z,48.50
2023-03-22T13:06:28.106Z,47.90
2023-03-22T13:09:16.923Z,48.50
2023-03-22T13:11:49.568Z,49.10
2023-03-22T13:14:56.249Z,48.10
2023-03-22T13:17:23.025Z,44.10
2023-03-22T13:20:15.680Z,46.80
2023-03-22T13:22:42.392Z,47.50
2023-03-22T13:25:17.235Z,48.60
2023-03-22T13:27:56.870Z,49.40
2023-03-22T13:30:52.591Z,49.30
2023-03-22T13:33:26.619Z,49.30
2023-03-22T13:35:57.780Z,49.60
2023-03-22T13:38:29.597Z,50.30
2023-03-22T13:41:29.515Z,50.90
2023-03-22T13:43:58.843Z,49.80
2023-03-22T13:46:25.736Z,46.30
2023-03-22T13:49:01.698Z,44.80
2023-03-22T13:51:32.104Z,43.20
2023-03-22T13:54:21.054Z,43.00
2023-03-22T13:56:52.758Z,43.40
2023-03-22T13:59:30.377Z,43.60
2023-03-22T14:02:22.371Z,40.80
2023-03-22T14:04:53.207Z,39.40
2023-03-22T14:07:36.971Z,40.50
2023-03-22T14:10:42.331Z,40.60
2023-03-22T14:13:30.813Z,39.20
2023-03-22T14:16:04.386Z,35.80
2023-03-22T14:18:33.292Z,33.20
2023-03-22T14:21:05.209Z,34.80
